Time;durP1;ratioP1;P1;durP2;ratioP2;P2;SDS_P1;SDS_P2;PMS_P1;PMS_P2;Temp;Humidity;BMP_temperature;BMP_pressure;BME280_temperature;BME280_humidity;BME280_pressure;Samples;Min_cycle;Max_cycle;Signal;HPM_P1;HPM_P2
2022/07/20 00:01:47;;;;;;;;;;;26.80;53.90;;;;;;4917014;28;19996;-77
2022/07/20 00:04:16;;;;;;;;;;;26.80;53.90;;;;;;4923715;28;19937;-77
2022/07/20 00:06:43;;;;;;;;;;;26.80;54.00;;;;;;4929954;28;20021;-77
2022/07/20 00:11:54;;;;;;;;;;;26.70;53.90;;;;;;4921518;28;20317;-77
2022/07/20 00:14:21;;;;;;;;;;;26.70;54.00;;;;;;4918057;28;19927;-77
2022/07/20 00:16:49;;;;;;;;;;;26.60;54.00;;;;;;4919692;28;19998;-75
2022/07/20 00:19:16;;;;;;;;;;;26.60;54.00;;;;;;5011391;28;19935;-77
2022/07/20 00:21:43;;;;;;;;;;;26.60;54.10;;;;;;4919156;28;23534;-77
2022/07/20 00:24:09;;;;;;;;;;;26.60;54.20;;;;;;4918345;28;19928;-77
2022/07/20 00:26:36;;;;;;;;;;;26.50;54.10;;;;;;4917304;28;20000;-76
2022/07/20 00:29:03;;;;;;;;;;;26.50;54.20;;;;;;4918320;28;19974;-77
2022/07/20 00:31:30;;;;;;;;;;;26.50;54.30;;;;;;4918529;28;19931;-78
2022/07/20 00:33:58;;;;;;;;;;;26.50;54.40;;;;;;4922776;28;19962;-77
2022/07/20 00:36:25;;;;;;;;;;;26.40;54.50;;;;;;4923756;28;20493;-77
2022/07/20 00:38:52;;;;;;;;;;;26.40;54.50;;;;;;4918684;28;19945;-77
2022/07/20 00:41:18;;;;;;;;;;;26.40;54.50;;;;;;4921257;28;20451;-77
2022/07/20 00:44:05;;;;;;;;;;;26.30;54.40;;;;;;5004573;28;19928;-77
2022/07/20 00:46:33;;;;;;;;;;;26.30;54.50;;;;;;4922245;28;20470;-76
2022/07/20 00:49:03;;;;;;;;;;;26.30;54.60;;;;;;4916360;28;19930;-76
2022/07/20 00:51:30;;;;;;;;;;;26.30;54.70;;;;;;4922948;28;20031;-78
2022/07/20 00:53:57;;;;;;;;;;;26.20;54.60;;;;;;4930962;28;19954;-77
2022/07/20 00:56:24;;;;;;;;;;;26.20;54.70;;;;;;5003981;28;19927;-77
2022/07/20 00:58:51;;;;;;;;;;;26.20;54.80;;;;;;4928464;28;19935;-77
2022/07/20 01:01:18;;;;;;;;;;;26.20;55.00;;;;;;4920908;28;20017;-74
2022/07/20 01:03:45;;;;;;;;;;;26.10;55.00;;;;;;4917324;28;19933;-76
2022/07/20 01:06:13;;;;;;;;;;;26.10;55.10;;;;;;4919076;28;19962;-76
2022/07/20 01:08:40;;;;;;;;;;;26.10;55.20;;;;;;4935551;28;19981;-74
2022/07/20 01:11:07;;;;;;;;;;;26.10;55.30;;;;;;4913730;28;20422;-76
2022/07/20 01:13:35;;;;;;;;;;;26.00;55.30;;;;;;4921656;28;20586;-76
2022/07/20 01:16:01;;;;;;;;;;;26.00;55.40;;;;;;4931562;28;20035;-74
2022/07/20 01:18:28;;;;;;;;;;;25.90;55.50;;;;;;4914834;28;20323;-77
2022/07/20 01:21:01;;;;;;;;;;;26.00;55.60;;;;;;4913890;28;19930;-77
2022/07/20 01:23:28;;;;;;;;;;;25.90;55.60;;;;;;4939025;28;20393;-77
2022/07/20 01:25:56;;;;;;;;;;;25.90;55.70;;;;;;4913900;28;19981;-76
2022/07/20 01:28:22;;;;;;;;;;;25.80;55.70;;;;;;4913188;28;19942;-74
2022/07/20 01:30:49;;;;;;;;;;;25.80;55.70;;;;;;4923574;28;19934;-76
2022/07/20 01:33:16;;;;;;;;;;;25.80;55.70;;;;;;4915608;28;19927;-76
2022/07/20 01:35:43;;;;;;;;;;;25.70;55.50;;;;;;4918536;28;19942;-75
2022/07/20 01:38:11;;;;;;;;;;;25.70;55.70;;;;;;4912728;28;24383;-75
2022/07/20 01:40:38;;;;;;;;;;;25.60;55.80;;;;;;4925478;28;19942;-75
2022/07/20 01:43:05;;;;;;;;;;;25.60;55.80;;;;;;4926878;28;20203;-76
2022/07/20 01:45:32;;;;;;;;;;;25.60;55.80;;;;;;4918833;28;19934;-75
2022/07/20 01:47:59;;;;;;;;;;;25.50;55.60;;;;;;4929604;28;20364;-75
2022/07/20 01:50:26;;;;;;;;;;;25.50;55.90;;;;;;4915699;28;19935;-76
2022/07/20 01:52:53;;;;;;;;;;;25.40;55.70;;;;;;4921267;28;19934;-76
2022/07/20 01:55:21;;;;;;;;;;;25.40;55.80;;;;;;4916534;28;19933;-75
2022/07/20 01:57:48;;;;;;;;;;;25.30;56.10;;;;;;4930710;28;19984;-75
2022/07/20 02:00:15;;;;;;;;;;;25.30;55.80;;;;;;4918878;28;20248;-76
2022/07/20 02:02:42;;;;;;;;;;;25.30;56.50;;;;;;4926155;28;20050;-75
2022/07/20 02:05:10;;;;;;;;;;;25.20;56.40;;;;;;4917998;28;19930;-75
2022/07/20 02:07:37;;;;;;;;;;;25.20;56.20;;;;;;4916592;28;20000;-76
2022/07/20 02:10:06;;;;;;;;;;;25.10;56.60;;;;;;4927594;28;19942;-75
2022/07/20 02:12:35;;;;;;;;;;;25.10;56.10;;;;;;4918594;28;19935;-74
2022/07/20 02:15:02;;;;;;;;;;;25.00;56.40;;;;;;4932060;28;19927;-75
2022/07/20 02:17:28;;;;;;;;;;;25.00;56.40;;;;;;4914383;28;20419;-74
2022/07/20 02:19:55;;;;;;;;;;;25.00;57.20;;;;;;4913577;28;20141;-75
2022/07/20 02:22:22;;;;;;;;;;;24.90;56.70;;;;;;4922184;28;19931;-75
2022/07/20 02:24:49;;;;;;;;;;;24.90;56.60;;;;;;4930568;28;19988;-75
2022/07/20 02:27:16;;;;;;;;;;;24.80;56.40;;;;;;4918510;28;19937;-76
2022/07/20 02:29:44;;;;;;;;;;;24.80;56.60;;;;;;4920367;28;19930;-74
2022/07/20 02:32:11;;;;;;;;;;;24.70;56.90;;;;;;4924424;28;19935;-76
2022/07/20 02:34:38;;;;;;;;;;;24.70;56.90;;;;;;5008525;28;19938;-73
2022/07/20 02:37:04;;;;;;;;;;;24.70;56.90;;;;;;4926919;28;20023;-75
2022/07/20 02:39:31;;;;;;;;;;;24.60;56.80;;;;;;4913708;28;20413;-76
2022/07/20 02:41:58;;;;;;;;;;;24.60;56.80;;;;;;4921924;28;19927;-74
2022/07/20 02:44:25;;;;;;;;;;;24.60;56.90;;;;;;4923875;28;19935;-75
2022/07/20 02:46:54;;;;;;;;;;;24.50;56.60;;;;;;4919332;28;20029;-75
2022/07/20 02:49:21;;;;;;;;;;;24.50;56.80;;;;;;4915383;28;20413;-75
2022/07/20 02:51:47;;;;;;;;;;;24.40;57.10;;;;;;4917569;28;19973;-73
2022/07/20 02:54:14;;;;;;;;;;;24.40;57.10;;;;;;4921917;28;19981;-75
2022/07/20 02:56:41;;;;;;;;;;;24.30;57.10;;;;;;4917898;28;19926;-76
2022/07/20 02:59:08;;;;;;;;;;;24.30;57.10;;;;;;4919016;28;20496;-75
2022/07/20 03:01:35;;;;;;;;;;;24.30;57.30;;;;;;4922560;28;19927;-74
2022/07/20 03:04:03;;;;;;;;;;;24.20;57.00;;;;;;4932742;28;20018;-75
2022/07/20 03:06:30;;;;;;;;;;;24.20;57.10;;;;;;4915982;28;19934;-75
2022/07/20 03:08:56;;;;;;;;;;;24.10;57.20;;;;;;4925611;28;20191;-75
2022/07/20 03:11:23;;;;;;;;;;;24.10;57.30;;;;;;4931080;28;19933;-74
2022/07/20 03:13:50;;;;;;;;;;;24.10;57.10;;;;;;4921302;28;20000;-75
2022/07/20 03:16:17;;;;;;;;;;;24.00;57.10;;;;;;4930496;28;20068;-76
2022/07/20 03:18:44;;;;;;;;;;;24.00;57.40;;;;;;4932110;28;20416;-76
2022/07/20 03:21:12;;;;;;;;;;;23.90;57.30;;;;;;4932517;28;19925;-75
2022/07/20 03:23:39;;;;;;;;;;;23.90;57.30;;;;;;4950726;28;20356;-77
2022/07/20 03:26:06;;;;;;;;;;;23.80;57.40;;;;;;4921828;28;19927;-76
2022/07/20 03:28:33;;;;;;;;;;;23.80;57.50;;;;;;4922811;28;19973;-76
2022/07/20 03:31:00;;;;;;;;;;;23.80;57.60;;;;;;4923965;28;19927;-77
2022/07/20 03:33:26;;;;;;;;;;;23.70;57.70;;;;;;4928047;28;19941;-75
2022/07/20 03:35:53;;;;;;;;;;;23.70;57.80;;;;;;4918538;28;20314;-76
2022/07/20 03:38:21;;;;;;;;;;;23.60;57.60;;;;;;4917485;28;19927;-77
2022/07/20 03:40:48;;;;;;;;;;;23.60;57.80;;;;;;4917419;28;19927;-76
2022/07/20 03:43:15;;;;;;;;;;;;;;;;;;4912484;28;19938;-78
2022/07/20 03:45:42;;;;;;;;;;;23.50;57.30;;;;;;4925960;28;19933;-80
2022/07/20 03:48:09;;;;;;;;;;;23.50;57.80;;;;;;4943886;28;19931;-78
2022/07/20 03:50:36;;;;;;;;;;;23.40;57.70;;;;;;4928076;28;22073;-78
2022/07/20 03:53:03;;;;;;;;;;;23.40;57.80;;;;;;4925060;28;20025;-78
2022/07/20 03:55:31;;;;;;;;;;;23.40;57.90;;;;;;4931721;28;19926;-79
2022/07/20 03:57:58;;;;;;;;;;;23.40;57.90;;;;;;4913316;28;19954;-78
2022/07/20 04:00:25;;;;;;;;;;;23.30;58.00;;;;;;4903975;28;20286;-75
2022/07/20 04:02:52;;;;;;;;;;;23.30;58.00;;;;;;4929438;28;19938;-75
2022/07/20 04:05:19;;;;;;;;;;;23.30;58.40;;;;;;4920466;28;19927;-77
2022/07/20 04:07:46;;;;;;;;;;;23.20;58.30;;;;;;4918370;28;20300;-76
2022/07/20 04:10:13;;;;;;;;;;;23.20;58.40;;;;;;4922672;28;19997;-76
2022/07/20 04:12:41;;;;;;;;;;;23.10;58.20;;;;;;4914775;28;19939;-75
2022/07/20 04:15:08;;;;;;;;;;;23.10;58.30;;;;;;4919191;28;20295;-75
2022/07/20 04:17:35;;;;;;;;;;;23.00;58.10;;;;;;4919905;28;20340;-76
2022/07/20 04:20:04;;;;;;;;;;;23.00;58.40;;;;;;4919674;28;21151;-77
2022/07/20 04:22:31;;;;;;;;;;;23.00;58.50;;;;;;4919941;28;19937;-79
2022/07/20 04:24:58;;;;;;;;;;;22.90;58.40;;;;;;4925447;28;19938;-77
2022/07/20 04:27:24;;;;;;;;;;;22.90;58.50;;;;;;4927423;28;19930;-76
2022/07/20 04:29:53;;;;;;;;;;;22.90;58.50;;;;;;4923262;28;20008;-78
2022/07/20 04:32:19;;;;;;;;;;;22.80;58.40;;;;;;4919506;28;19927;-76
2022/07/20 04:34:46;;;;;;;;;;;22.80;58.60;;;;;;4922220;28;20067;-76
2022/07/20 04:37:13;;;;;;;;;;;22.80;58.60;;;;;;4913741;28;19938;-77
2022/07/20 04:39:40;;;;;;;;;;;22.70;58.60;;;;;;4921169;28;19927;-77
2022/07/20 04:42:07;;;;;;;;;;;22.70;58.60;;;;;;4921874;28;20275;-75
2022/07/20 04:44:34;;;;;;;;;;;22.70;58.70;;;;;;4915746;28;19974;-77
2022/07/20 04:47:02;;;;;;;;;;;22.60;58.80;;;;;;4920258;28;20393;-75
2022/07/20 04:49:29;;;;;;;;;;;22.60;58.80;;;;;;4922868;28;20732;-75
2022/07/20 04:51:55;;;;;;;;;;;22.60;59.10;;;;;;4919055;28;19962;-78
2022/07/20 04:54:22;;;;;;;;;;;22.50;59.10;;;;;;4919836;28;20017;-75
2022/07/20 04:56:49;;;;;;;;;;;22.50;59.10;;;;;;4926259;28;20716;-76
2022/07/20 04:59:16;;;;;;;;;;;22.50;59.30;;;;;;4910473;28;20115;-77
2022/07/20 05:01:43;;;;;;;;;;;22.40;59.30;;;;;;4918254;28;20290;-76
2022/07/20 05:04:11;;;;;;;;;;;22.40;59.30;;;;;;4917462;28;19950;-76
2022/07/20 05:06:38;;;;;;;;;;;22.40;59.40;;;;;;4909096;28;19935;-77
2022/07/20 05:09:07;;;;;;;;;;;22.30;59.30;;;;;;4915688;28;19950;-75
2022/07/20 05:11:33;;;;;;;;;;;22.30;59.60;;;;;;4912265;28;20808;-76
2022/07/20 05:14:00;;;;;;;;;;;22.20;59.50;;;;;;4920623;28;19931;-76
2022/07/20 05:16:27;;;;;;;;;;;22.20;59.50;;;;;;4923031;28;19989;-77
2022/07/20 05:18:54;;;;;;;;;;;22.20;59.30;;;;;;4921833;28;19954;-75
2022/07/20 05:21:22;;;;;;;;;;;22.10;59.40;;;;;;4913147;28;20336;-76
2022/07/20 05:23:50;;;;;;;;;;;22.00;58.80;;;;;;4910886;28;20013;-75
2022/07/20 05:26:17;;;;;;;;;;;22.00;59.00;;;;;;4917178;28;19935;-76
2022/07/20 05:28:44;;;;;;;;;;;22.00;59.20;;;;;;4916813;28;20397;-76
2022/07/20 05:31:13;;;;;;;;;;;21.90;59.30;;;;;;4919367;28;19942;-76
2022/07/20 05:33:40;;;;;;;;;;;21.90;59.70;;;;;;4917900;28;19931;-76
2022/07/20 05:36:08;;;;;;;;;;;21.80;59.90;;;;;;4926799;28;19927;-76
2022/07/20 05:38:36;;;;;;;;;;;21.80;60.30;;;;;;4922639;28;19939;-77
2022/07/20 05:41:03;;;;;;;;;;;21.80;60.40;;;;;;4921589;28;20020;-76
2022/07/20 05:43:30;;;;;;;;;;;21.80;60.70;;;;;;4915813;28;19927;-76
2022/07/20 05:45:57;;;;;;;;;;;21.80;60.80;;;;;;4914649;28;19927;-76
2022/07/20 05:48:24;;;;;;;;;;;21.80;61.00;;;;;;4917862;28;19938;-76
2022/07/20 05:50:51;;;;;;;;;;;21.80;61.10;;;;;;4915542;28;19930;-76
2022/07/20 05:53:17;;;;;;;;;;;21.80;61.30;;;;;;4913851;28;19952;-76
2022/07/20 05:55:46;;;;;;;;;;;21.80;61.40;;;;;;4922313;28;19966;-76
2022/07/20 05:58:13;;;;;;;;;;;21.80;61.40;;;;;;4945191;28;20420;-76
2022/07/20 06:00:40;;;;;;;;;;;21.80;61.50;;;;;;4911156;28;19931;-76
2022/07/20 06:03:07;;;;;;;;;;;21.80;61.60;;;;;;4919436;28;19934;-76
2022/07/20 06:05:34;;;;;;;;;;;21.80;61.70;;;;;;4920311;28;20182;-77
2022/07/20 06:08:01;;;;;;;;;;;21.80;62.20;;;;;;4926299;28;19934;-76
2022/07/20 06:10:28;;;;;;;;;;;21.90;62.00;;;;;;4921680;28;19938;-77
2022/07/20 06:12:57;;;;;;;;;;;21.90;61.90;;;;;;4931111;28;19954;-75
2022/07/20 06:15:25;;;;;;;;;;;21.90;61.80;;;;;;4931117;28;19977;-76
2022/07/20 06:17:52;;;;;;;;;;;21.90;61.70;;;;;;4926905;28;19931;-75
2022/07/20 06:20:19;;;;;;;;;;;21.90;61.60;;;;;;4924213;28;19935;-75
2022/07/20 06:22:46;;;;;;;;;;;21.90;61.50;;;;;;4914627;28;19926;-74
2022/07/20 06:25:14;;;;;;;;;;;22.00;61.60;;;;;;4987983;28;19935;-76
2022/07/20 06:27:41;;;;;;;;;;;22.00;61.60;;;;;;4918089;28;20289;-74
2022/07/20 06:30:12;;;;;;;;;;;22.00;61.60;;;;;;4919433;28;20021;-75
2022/07/20 06:32:39;;;;;;;;;;;22.00;61.70;;;;;;4918598;28;19974;-75
2022/07/20 06:35:06;;;;;;;;;;;22.00;61.70;;;;;;4926032;28;19935;-75
2022/07/20 06:37:33;;;;;;;;;;;22.00;61.70;;;;;;4921374;28;19981;-76
2022/07/20 06:40:01;;;;;;;;;;;22.00;61.70;;;;;;4917259;28;20014;-77
2022/07/20 06:42:28;;;;;;;;;;;22.00;61.80;;;;;;4921260;28;19935;-74
2022/07/20 06:44:55;;;;;;;;;;;22.00;61.70;;;;;;4921948;28;19981;-75
2022/07/20 06:47:23;;;;;;;;;;;22.10;61.80;;;;;;4922361;28;20535;-76
2022/07/20 06:49:50;;;;;;;;;;;22.00;61.70;;;;;;4916191;28;20393;-76
2022/07/20 06:52:17;;;;;;;;;;;22.00;61.70;;;;;;4910177;28;20385;-76
2022/07/20 06:54:45;;;;;;;;;;;22.10;61.80;;;;;;4921604;28;19931;-76
2022/07/20 06:57:13;;;;;;;;;;;22.10;61.80;;;;;;4996310;28;19930;-76
2022/07/20 06:59:40;;;;;;;;;;;22.10;61.90;;;;;;4919593;28;20396;-77
2022/07/20 07:02:07;;;;;;;;;;;22.10;61.90;;;;;;4914998;28;20416;-75
2022/07/20 07:04:35;;;;;;;;;;;22.10;62.00;;;;;;4918546;28;19927;-75
2022/07/20 07:07:02;;;;;;;;;;;22.20;62.00;;;;;;4921545;28;20014;-76
2022/07/20 07:09:30;;;;;;;;;;;22.20;61.90;;;;;;4916661;28;20040;-76
2022/07/20 07:11:57;;;;;;;;;;;22.20;62.00;;;;;;4912111;28;21242;-75
2022/07/20 07:14:25;;;;;;;;;;;22.20;62.00;;;;;;4921564;28;20483;-74
2022/07/20 07:16:52;;;;;;;;;;;22.20;61.90;;;;;;4915950;28;22974;-75
2022/07/20 07:19:19;;;;;;;;;;;22.20;62.60;;;;;;4918902;28;20397;-75
2022/07/20 07:21:47;;;;;;;;;;;22.30;62.00;;;;;;4916931;28;19973;-75
2022/07/20 07:24:14;;;;;;;;;;;22.30;62.20;;;;;;4915809;28;19938;-76
2022/07/20 07:26:41;;;;;;;;;;;22.30;62.10;;;;;;4916231;28;19937;-75
2022/07/20 07:29:08;;;;;;;;;;;22.30;62.10;;;;;;4914738;28;19926;-75
2022/07/20 07:31:35;;;;;;;;;;;22.30;62.10;;;;;;4920842;28;19935;-75
2022/07/20 07:34:02;;;;;;;;;;;22.30;62.30;;;;;;4923727;28;20045;-75
2022/07/20 07:36:29;;;;;;;;;;;22.40;62.40;;;;;;4920038;28;19927;-75
2022/07/20 07:38:57;;;;;;;;;;;22.40;62.50;;;;;;4993646;28;19930;-76
2022/07/20 07:41:24;;;;;;;;;;;22.40;62.80;;;;;;4910485;28;20057;-75
2022/07/20 07:43:51;;;;;;;;;;;22.40;62.80;;;;;;4916971;28;20427;-76
2022/07/20 07:46:18;;;;;;;;;;;22.40;62.70;;;;;;4915523;28;20002;-76
2022/07/20 07:48:45;;;;;;;;;;;22.50;62.70;;;;;;4923436;28;19942;-75
2022/07/20 07:51:12;;;;;;;;;;;22.50;63.00;;;;;;4916814;28;20325;-75
2022/07/20 07:53:39;;;;;;;;;;;22.60;65.10;;;;;;4935140;28;20029;-74
2022/07/20 07:56:07;;;;;;;;;;;22.80;64.40;;;;;;4916886;28;20533;-74
2022/07/20 07:58:34;;;;;;;;;;;22.80;64.40;;;;;;4935003;28;19961;-75
2022/07/20 08:01:01;;;;;;;;;;;22.70;64.20;;;;;;4925155;28;19943;-74
2022/07/20 08:03:28;;;;;;;;;;;22.70;64.30;;;;;;4918193;28;19932;-75
2022/07/20 08:05:55;;;;;;;;;;;22.70;64.30;;;;;;4926879;28;19934;-75
2022/07/20 08:08:22;;;;;;;;;;;22.70;64.20;;;;;;4925171;28;19934;-74
2022/07/20 08:10:48;;;;;;;;;;;22.70;64.00;;;;;;4930775;28;20009;-74
2022/07/20 08:13:17;;;;;;;;;;;22.70;64.00;;;;;;4925583;28;19927;-75
2022/07/20 08:15:44;;;;;;;;;;;22.70;64.00;;;;;;4925419;28;20019;-75
2022/07/20 08:18:11;;;;;;;;;;;22.70;64.00;;;;;;4915842;28;19927;-74
2022/07/20 08:20:38;;;;;;;;;;;22.70;64.10;;;;;;4918157;28;19974;-74
2022/07/20 08:23:05;;;;;;;;;;;22.80;64.80;;;;;;4924796;28;19931;-74
2022/07/20 08:25:32;;;;;;;;;;;22.90;65.00;;;;;;4917962;28;20309;-74
2022/07/20 08:28:09;;;;;;;;;;;23.00;65.10;;;;;;4920638;28;19961;-74
2022/07/20 08:30:37;;;;;;;;;;;23.00;65.10;;;;;;4923599;28;20431;-74
2022/07/20 08:33:04;;;;;;;;;;;23.00;65.00;;;;;;4924912;28;21085;-76
2022/07/20 08:35:31;;;;;;;;;;;23.00;64.90;;;;;;4924292;28;20360;-76
2022/07/20 08:37:58;;;;;;;;;;;22.90;64.80;;;;;;4921490;28;20588;-76
2022/07/20 08:40:25;;;;;;;;;;;23.00;64.80;;;;;;4918675;28;19937;-75
2022/07/20 08:42:52;;;;;;;;;;;23.00;64.90;;;;;;4917694;28;20337;-75
2022/07/20 08:45:19;;;;;;;;;;;23.00;65.00;;;;;;4915557;28;19976;-75
2022/07/20 08:47:49;;;;;;;;;;;23.00;64.90;;;;;;4919903;29;20439;-75
2022/07/20 08:50:21;;;;;;;;;;;23.10;64.90;;;;;;4928945;28;20337;-75
2022/07/20 08:52:47;;;;;;;;;;;23.10;65.00;;;;;;4914142;28;19927;-75
2022/07/20 08:55:14;;;;;;;;;;;23.10;64.90;;;;;;4921709;28;20077;-75
2022/07/20 08:57:43;;;;;;;;;;;23.10;64.90;;;;;;4922614;28;19954;-76
2022/07/20 09:00:11;;;;;;;;;;;23.10;64.80;;;;;;4915142;28;19935;-75
2022/07/20 09:02:55;;;;;;;;;;;23.10;65.00;;;;;;4915618;28;19942;-75
2022/07/20 09:05:24;;;;;;;;;;;23.10;65.00;;;;;;4919630;28;19927;-75
2022/07/20 09:07:52;;;;;;;;;;;23.20;65.10;;;;;;4915182;28;20041;-75
2022/07/20 09:10:20;;;;;;;;;;;23.20;65.10;;;;;;4923585;28;20412;-75
2022/07/20 09:12:52;;;;;;;;;;;23.20;65.10;;;;;;4915629;28;20654;-75
2022/07/20 09:15:24;;;;;;;;;;;23.20;65.10;;;;;;4919196;28;19935;-75
2022/07/20 09:18:01;;;;;;;;;;;23.20;65.10;;;;;;4917089;28;19931;-75
2022/07/20 09:20:30;;;;;;;;;;;23.20;65.10;;;;;;4914010;28;19973;-76
2022/07/20 09:23:00;;;;;;;;;;;23.30;65.20;;;;;;4933335;28;19966;-75
2022/07/20 09:25:28;;;;;;;;;;;23.30;65.30;;;;;;4919345;28;19927;-75
2022/07/20 09:27:55;;;;;;;;;;;23.30;65.30;;;;;;4917041;28;20002;-75
2022/07/20 09:30:22;;;;;;;;;;;23.30;65.30;;;;;;4921957;28;20508;-75
2022/07/20 09:32:50;;;;;;;;;;;23.30;65.30;;;;;;4922122;28;19927;-75
2022/07/20 09:35:18;;;;;;;;;;;23.40;65.30;;;;;;4924921;28;20564;-75
2022/07/20 09:37:46;;;;;;;;;;;23.40;65.30;;;;;;4917118;28;20026;-75
2022/07/20 09:40:13;;;;;;;;;;;23.40;65.20;;;;;;4924275;28;19984;-75
2022/07/20 09:42:40;;;;;;;;;;;23.40;65.30;;;;;;4996275;28;19927;-75
2022/07/20 09:45:24;;;;;;;;;;;23.50;65.30;;;;;;4920242;28;20155;-76
2022/07/20 09:48:01;;;;;;;;;;;23.50;65.30;;;;;;4913804;28;20302;-75
2022/07/20 09:50:29;;;;;;;;;;;23.50;65.50;;;;;;4932621;28;19936;-74
2022/07/20 09:52:58;;;;;;;;;;;23.60;65.60;;;;;;4939372;28;20219;-74
2022/07/20 09:55:25;;;;;;;;;;;23.60;65.60;;;;;;4991144;28;19939;-75
2022/07/20 09:57:52;;;;;;;;;;;23.60;65.60;;;;;;4922680;28;19970;-75
2022/07/20 10:00:19;;;;;;;;;;;23.60;65.80;;;;;;4920593;28;19939;-74
2022/07/20 10:02:47;;;;;;;;;;;23.70;65.80;;;;;;4912223;28;19939;-75
2022/07/20 10:05:15;;;;;;;;;;;23.70;65.70;;;;;;4922931;28;19935;-75
2022/07/20 10:07:43;;;;;;;;;;;23.70;65.70;;;;;;4923456;28;20336;-75
2022/07/20 10:10:13;;;;;;;;;;;23.70;65.70;;;;;;4924132;28;20008;-75
2022/07/20 10:12:40;;;;;;;;;;;23.80;65.90;;;;;;4919464;28;19981;-76
2022/07/20 10:15:09;;;;;;;;;;;23.80;65.80;;;;;;4915731;28;20100;-75
2022/07/20 10:17:36;;;;;;;;;;;23.80;65.90;;;;;;4953927;28;19981;-75
2022/07/20 10:20:03;;;;;;;;;;;23.80;66.00;;;;;;4910143;28;19943;-75
2022/07/20 10:22:31;;;;;;;;;;;23.90;66.10;;;;;;4916320;28;19942;-76
2022/07/20 10:25:13;;;;;;;;;;;23.90;66.00;;;;;;4919402;28;20401;-74
2022/07/20 10:27:41;;;;;;;;;;;23.90;66.00;;;;;;4911948;28;20662;-75
2022/07/20 10:30:18;;;;;;;;;;;24.00;66.10;;;;;;4920789;28;19954;-74
2022/07/20 10:32:52;;;;;;;;;;;24.00;66.10;;;;;;4908439;28;19927;-74
2022/07/20 10:35:27;;;;;;;;;;;24.00;66.00;;;;;;4911735;28;20029;-74
2022/07/20 10:37:53;;;;;;;;;;;24.00;66.10;;;;;;4912289;28;19927;-75
2022/07/20 10:40:21;;;;;;;;;;;24.10;66.20;;;;;;4916374;28;20290;-73
2022/07/20 10:42:50;;;;;;;;;;;24.10;66.20;;;;;;4912009;28;19931;-74
2022/07/20 10:45:28;;;;;;;;;;;24.10;66.10;;;;;;4921461;28;19926;-74
2022/07/20 10:47:56;;;;;;;;;;;24.20;66.10;;;;;;4916982;28;19927;-75
2022/07/20 10:50:24;;;;;;;;;;;24.20;66.10;;;;;;4926386;28;19993;-76
2022/07/20 10:52:53;;;;;;;;;;;24.20;66.10;;;;;;4918957;28;19935;-75
2022/07/20 10:55:51;;;;;;;;;;;24.30;66.10;;;;;;4918104;28;20005;-74
2022/07/20 10:58:20;;;;;;;;;;;24.30;66.00;;;;;;4936377;28;20259;-76
2022/07/20 11:00:48;;;;;;;;;;;24.40;66.10;;;;;;4922701;28;19982;-75
2022/07/20 11:03:15;;;;;;;;;;;24.40;66.00;;;;;;4915806;28;20448;-75
2022/07/20 11:05:43;;;;;;;;;;;24.40;65.80;;;;;;4918603;28;20290;-75
2022/07/20 11:08:11;;;;;;;;;;;24.50;65.90;;;;;;4917705;28;20025;-75
2022/07/20 11:10:38;;;;;;;;;;;24.50;65.70;;;;;;4920368;28;19985;-73
2022/07/20 11:13:05;;;;;;;;;;;24.50;65.80;;;;;;4919609;28;19930;-76
2022/07/20 11:15:39;;;;;;;;;;;24.60;65.80;;;;;;4918022;28;19997;-75
2022/07/20 11:18:06;;;;;;;;;;;24.60;65.70;;;;;;4920295;28;20391;-75
2022/07/20 11:20:33;;;;;;;;;;;24.60;65.60;;;;;;4923914;28;19973;-75
2022/07/20 11:23:01;;;;;;;;;;;24.70;65.60;;;;;;4923761;28;19943;-74
2022/07/20 11:25:44;;;;;;;;;;;24.70;65.40;;;;;;4923181;28;19926;-75
2022/07/20 11:28:11;;;;;;;;;;;24.70;65.20;;;;;;4949371;28;19931;-74
2022/07/20 11:30:42;;;;;;;;;;;24.70;65.00;;;;;;4927566;28;19934;-73
2022/07/20 11:33:09;;;;;;;;;;;24.80;65.00;;;;;;4916701;28;20178;-75
2022/07/20 11:35:36;;;;;;;;;;;24.90;65.10;;;;;;4915773;28;20028;-75
2022/07/20 11:38:03;;;;;;;;;;;24.90;65.00;;;;;;4922689;28;19942;-75
2022/07/20 11:40:30;;;;;;;;;;;24.90;65.20;;;;;;4921355;28;19938;-75
2022/07/20 11:43:07;;;;;;;;;;;24.90;65.00;;;;;;4912441;28;19934;-74
2022/07/20 11:45:34;;;;;;;;;;;25.00;65.10;;;;;;4917787;28;19927;-74
2022/07/20 11:48:03;;;;;;;;;;;25.00;65.10;;;;;;4923941;28;20012;-72
2022/07/20 11:50:34;;;;;;;;;;;25.10;65.00;;;;;;4919566;28;19986;-74
2022/07/20 11:53:00;;;;;;;;;;;25.10;64.90;;;;;;4923241;28;19926;-74
2022/07/20 11:55:34;;;;;;;;;;;25.20;64.80;;;;;;4916488;28;19931;-74
2022/07/20 11:58:01;;;;;;;;;;;25.20;64.10;;;;;;4918928;28;20063;-74
2022/07/20 12:00:28;;;;;;;;;;;25.20;64.60;;;;;;4920718;28;19942;-74
2022/07/20 12:05:25;;;;;;;;;;;25.30;64.50;;;;;;5019493;28;19936;-74
2022/07/20 12:08:10;;;;;;;;;;;25.40;64.70;;;;;;5005495;28;20701;-74
2022/07/20 12:10:37;;;;;;;;;;;25.40;64.80;;;;;;5023585;28;20290;-75
2022/07/20 12:13:04;;;;;;;;;;;25.50;64.70;;;;;;5022635;28;19925;-73
2022/07/20 12:15:31;;;;;;;;;;;25.50;64.70;;;;;;5002407;28;19936;-74
2022/07/20 12:17:58;;;;;;;;;;;25.60;64.80;;;;;;5017425;28;19939;-74
2022/07/20 12:20:27;;;;;;;;;;;25.60;64.90;;;;;;5028916;28;19925;-73
2022/07/20 12:22:54;;;;;;;;;;;;;;;;;;5020483;28;20016;-75
2022/07/20 12:25:22;;;;;;;;;;;25.70;64.40;;;;;;5022850;28;19924;-74
2022/07/20 12:27:49;;;;;;;;;;;25.80;65.00;;;;;;5024156;28;20434;-75
2022/07/20 12:30:26;;;;;;;;;;;25.80;64.80;;;;;;5026852;28;20296;-76
2022/07/20 12:33:03;;;;;;;;;;;25.90;64.70;;;;;;5016153;28;19925;-75
2022/07/20 12:35:31;;;;;;;;;;;25.90;64.70;;;;;;5012573;28;19929;-74
2022/07/20 12:37:58;;;;;;;;;;;26.10;63.40;;;;;;5018784;28;19929;-74
2022/07/20 12:40:26;;;;;;;;;;;;;;;;;;5016176;28;19971;-73
2022/07/20 12:42:56;;;;;;;;;;;;;;;;;;5005059;28;19940;-75
2022/07/20 12:45:22;;;;;;;;;;;26.30;63.40;;;;;;5023851;28;19932;-74
2022/07/20 12:47:49;;;;;;;;;;;26.40;64.40;;;;;;5021117;28;19983;-73
2022/07/20 12:50:16;;;;;;;;;;;26.40;64.20;;;;;;5022444;28;19968;-74
2022/07/20 12:52:45;;;;;;;;;;;26.50;64.50;;;;;;4999280;28;20003;-74
2022/07/20 12:55:11;;;;;;;;;;;26.50;64.90;;;;;;5001951;28;19932;-75
2022/07/20 12:57:38;;;;;;;;;;;26.60;64.60;;;;;;5021527;28;19983;-75
2022/07/20 13:00:06;;;;;;;;;;;26.70;64.60;;;;;;5017717;28;19924;-75
2022/07/20 13:02:33;;;;;;;;;;;26.70;64.30;;;;;;5018498;28;19932;-77
2022/07/20 13:05:00;;;;;;;;;;;26.80;64.40;;;;;;5026084;28;19971;-77
2022/07/20 13:07:27;;;;;;;;;;;26.80;64.60;;;;;;5018081;28;20772;-77
2022/07/20 13:09:55;;;;;;;;;;;26.90;63.40;;;;;;5010709;28;20382;-76
2022/07/20 13:12:22;;;;;;;;;;;27.00;62.60;;;;;;5016024;28;19925;-76
2022/07/20 13:14:49;;;;;;;;;;;27.00;62.40;;;;;;5015869;28;19933;-76
2022/07/20 13:17:16;;;;;;;;;;;27.00;62.60;;;;;;5013140;28;20343;-76
2022/07/20 13:19:43;;;;;;;;;;;27.10;62.90;;;;;;5018084;28;20024;-76
2022/07/20 13:22:10;;;;;;;;;;;27.10;62.90;;;;;;5013376;28;19965;-77
2022/07/20 13:24:36;;;;;;;;;;;27.20;62.90;;;;;;5012986;28;19933;-76
2022/07/20 13:27:05;;;;;;;;;;;27.50;58.30;;;;;;5015432;28;19937;-76
2022/07/20 13:29:32;;;;;;;;;;;27.90;56.00;;;;;;5013112;28;19936;-75
2022/07/20 13:31:59;;;;;;;;;;;27.90;57.40;;;;;;5022206;28;20346;-76
2022/07/20 13:34:25;;;;;;;;;;;27.80;58.70;;;;;;5023095;28;19925;-77
2022/07/20 13:36:52;;;;;;;;;;;27.80;59.50;;;;;;5029756;28;19933;-77
2022/07/20 13:39:19;;;;;;;;;;;27.80;60.00;;;;;;5022917;28;20301;-76
2022/07/20 13:41:46;;;;;;;;;;;27.90;60.70;;;;;;5007424;28;19991;-76
2022/07/20 13:44:15;;;;;;;;;;;27.90;61.00;;;;;;5010164;28;19929;-78
2022/07/20 13:46:42;;;;;;;;;;;27.90;61.10;;;;;;5020117;28;20289;-76
2022/07/20 13:49:09;;;;;;;;;;;28.00;61.30;;;;;;5023334;28;19932;-76
2022/07/20 13:51:37;;;;;;;;;;;28.00;61.90;;;;;;5017138;28;20012;-78
2022/07/20 13:54:04;;;;;;;;;;;28.10;61.80;;;;;;5030362;28;19933;-77
2022/07/20 13:56:31;;;;;;;;;;;28.10;61.30;;;;;;5026563;28;19929;-76
2022/07/20 13:58:58;;;;;;;;;;;28.30;60.70;;;;;;5022683;28;19925;-76
2022/07/20 14:01:27;;;;;;;;;;;28.30;60.40;;;;;;5016812;28;20386;-76
2022/07/20 14:03:53;;;;;;;;;;;28.30;60.00;;;;;;5021263;28;20064;-76
2022/07/20 14:06:21;;;;;;;;;;;28.40;60.70;;;;;;5014743;28;19925;-76
2022/07/20 14:08:48;;;;;;;;;;;28.40;59.80;;;;;;5000723;28;19972;-75
2022/07/20 14:11:15;;;;;;;;;;;28.50;59.50;;;;;;5026739;28;19934;-76
2022/07/20 14:13:42;;;;;;;;;;;28.60;59.70;;;;;;5022373;28;20383;-76
2022/07/20 14:16:09;;;;;;;;;;;28.70;60.30;;;;;;5018954;28;20018;-76
2022/07/20 14:18:37;;;;;;;;;;;28.70;60.80;;;;;;5021394;28;19940;-77
2022/07/20 14:21:04;;;;;;;;;;;28.80;61.10;;;;;;5021074;28;19987;-77
2022/07/20 14:23:31;;;;;;;;;;;28.80;61.20;;;;;;5018882;28;19933;-76
2022/07/20 14:25:58;;;;;;;;;;;28.90;61.20;;;;;;5018868;28;20465;-76
2022/07/20 14:28:24;;;;;;;;;;;28.90;61.30;;;;;;5022963;28;19931;-74